createdAt,value
2023-03-07T00:00:29.936Z,57.32
2023-03-07T00:05:32.300Z,57.30
2023-03-07T00:10:34.259Z,56.94
2023-03-07T00:15:38.085Z,57.11
2023-03-07T00:20:39.874Z,56.98
2023-03-07T00:25:41.612Z,56.88
2023-03-07T00:30:43.576Z,57.48
2023-03-07T00:35:45.387Z,57.34
2023-03-07T00:40:47.154Z,57.21
2023-03-07T00:45:48.995Z,57.39
2023-03-07T00:50:51.720Z,56.74
2023-03-07T00:56:02.275Z,56.91
2023-03-07T01:01:07.319Z,56.45
2023-03-07T01:06:13.912Z,56.69
2023-03-07T01:11:15.794Z,56.15
2023-03-07T01:16:24.013Z,56.57
2023-03-07T01:21:28.789Z,55.89
2023-03-07T01:26:33.240Z,56.01
2023-03-07T01:31:35.890Z,56.06
2023-03-07T01:36:38.670Z,55.75
2023-03-07T01:41:41.933Z,55.96
2023-03-07T01:46:58.560Z,55.22
2023-03-07T01:52:45.169Z,55.76
2023-03-07T01:57:51.217Z,55.06
2023-03-07T02:03:06.570Z,55.42
2023-03-07T02:08:13.781Z,55.44
2023-03-07T02:13:16.345Z,54.80
2023-03-07T02:18:24.248Z,54.97
2023-03-07T02:23:43.374Z,55.35
2023-03-07T02:28:47.979Z,54.74
2023-03-07T02:33:51.159Z,54.66
2023-03-07T02:38:57.120Z,54.72
2023-03-07T02:44:01.649Z,54.54
2023-03-07T02:49:03.735Z,54.34
2023-03-07T02:54:05.935Z,53.97
2023-03-07T02:59:08.079Z,54.00
2023-03-07T03:04:10.050Z,53.79
2023-03-07T03:09:11.969Z,53.39
2023-03-07T03:14:13.780Z,52.85
2023-03-07T03:19:15.670Z,53.11
2023-03-07T03:24:17.517Z,52.74
2023-03-07T03:29:20.950Z,52.68
2023-03-07T03:34:22.841Z,52.00
2023-03-07T03:44:45.047Z,52.39
2023-03-07T03:49:46.914Z,52.43
2023-03-07T03:54:48.931Z,52.88
2023-03-07T03:59:51.626Z,52.86
2023-03-07T04:04:53.916Z,53.29
2023-03-07T04:09:55.786Z,52.93
2023-03-07T04:14:58.317Z,53.23
2023-03-07T04:20:00.189Z,52.64
2023-03-07T04:25:02.291Z,52.96
2023-03-07T04:30:05.402Z,52.16
2023-03-07T04:35:08.020Z,52.31
2023-03-07T04:40:10.576Z,52.01
2023-03-07T04:45:12.528Z,51.72
2023-03-07T04:50:14.505Z,52.22
2023-03-07T04:55:19.615Z,51.50
2023-03-07T05:00:22.035Z,50.71
2023-03-07T05:05:25.029Z,51.67
2023-03-07T05:10:27.164Z,50.98
2023-03-07T05:15:29.413Z,51.15
2023-03-07T05:20:31.422Z,51.04
2023-03-07T05:25:33.266Z,51.26
2023-03-07T05:30:35.624Z,50.68
2023-03-07T05:35:38.362Z,51.38
2023-03-07T05:40:42.216Z,50.83
2023-03-07T05:45:45.593Z,49.98
2023-03-07T05:50:47.511Z,50.38
2023-03-07T05:55:51.591Z,49.61
2023-03-07T06:00:54.189Z,50.49
2023-03-07T06:05:57.306Z,50.31
2023-03-07T06:11:00.549Z,50.58
2023-03-07T06:16:03.400Z,50.32
2023-03-07T06:21:07.641Z,50.62
2023-03-07T06:26:15.063Z,50.46
2023-03-07T06:31:20.325Z,50.76
2023-03-07T06:36:23.066Z,50.91
2023-03-07T06:41:30.917Z,51.71
2023-03-07T06:46:35.026Z,52.54
2023-03-07T06:51:42.521Z,52.29
2023-03-07T06:56:45.752Z,53.23
2023-03-07T07:01:53.162Z,53.65
2023-03-07T07:06:56.415Z,53.58
2023-03-07T07:11:58.473Z,53.56
2023-03-07T07:17:00.888Z,54.08
2023-03-07T07:22:03.332Z,53.92
2023-03-07T07:27:05.901Z,54.02
2023-03-07T07:32:08.490Z,54.16
2023-03-07T07:37:10.702Z,54.21
2023-03-07T07:42:12.766Z,54.74
2023-03-07T07:47:27.716Z,54.77
2023-03-07T07:52:29.702Z,55.22
2023-03-07T07:57:31.553Z,55.15
2023-03-07T08:02:37.362Z,55.46
2023-03-07T08:07:39.217Z,55.56
2023-03-07T08:12:40.972Z,55.71
2023-03-07T08:17:43.491Z,56.70
2023-03-07T08:22:48.347Z,57.01
2023-03-07T08:27:54.917Z,57.06
2023-03-07T08:32:59.786Z,56.79
2023-03-07T08:38:01.612Z,56.06
2023-03-07T08:43:03.871Z,56.57
2023-03-07T08:48:05.822Z,55.88
2023-03-07T08:53:07.624Z,54.40
2023-03-07T08:58:10.142Z,53.81
2023-03-07T09:03:11.898Z,53.97
2023-03-07T09:08:13.698Z,52.90
2023-03-07T09:13:17.474Z,52.77
2023-03-07T09:18:22.747Z,53.03
2023-03-07T09:23:24.540Z,52.64
2023-03-07T09:28:26.359Z,52.34
2023-03-07T09:33:28.131Z,52.36
2023-03-07T09:38:29.876Z,51.98
2023-03-07T09:43:55.304Z,51.93
2023-03-07T09:49:39.392Z,51.83
2023-03-07T09:54:54.688Z,52.16
2023-03-07T10:00:01.325Z,51.82
2023-03-07T10:05:33.224Z,50.94
2023-03-07T10:10:41.632Z,51.04
2023-03-07T10:15:46.217Z,50.61
2023-03-07T10:20:49.546Z,50.10
2023-03-07T10:26:02.671Z,50.19
2023-03-07T10:31:22.091Z,50.35
2023-03-07T10:36:35.199Z,50.61
2023-03-07T10:47:25.370Z,49.35
2023-03-07T10:52:42.888Z,48.25
2023-03-07T10:57:44.670Z,48.35
2023-03-07T11:02:46.896Z,47.86
2023-03-07T11:07:48.673Z,47.55
2023-03-07T11:12:51.593Z,45.98
2023-03-07T11:17:53.738Z,46.16
2023-03-07T11:29:06.136Z,45.81
2023-03-07T11:34:25.703Z,44.83
2023-03-07T11:39:37.625Z,43.88
2023-03-07T11:45:00.394Z,44.24
2023-03-07T11:50:15.298Z,44.40
2023-03-07T11:55:48.014Z,44.34
2023-03-07T12:00:58.675Z,44.26
2023-03-07T12:06:20.537Z,44.17
2023-03-07T12:11:35.755Z,44.12
2023-03-07T12:17:32.899Z,44.48
2023-03-07T12:22:40.825Z,44.36
2023-03-07T12:28:21.357Z,44.11
2023-03-07T12:33:47.153Z,43.02
2023-03-07T12:39:32.805Z,43.09
2023-03-07T12:44:43.456Z,43.35
2023-03-07T12:50:07.299Z,43.31
2023-03-07T12:55:34.885Z,43.10
2023-03-07T13:00:41.909Z,42.80
2023-03-07T13:05:44.585Z,42.26
2023-03-07T13:10:46.627Z,42.22
2023-03-07T13:21:32.926Z,41.28
2023-03-07T13:32:51.094Z,41.16
2023-03-07T13:38:11.310Z,41.28
2023-03-07T13:43:19.272Z,40.83
2023-03-07T13:48:26.856Z,40.47
2023-03-07T13:53:48.285Z,40.67
2023-03-07T13:59:20.698Z,41.05
2023-03-07T14:04:43.217Z,40.76
2023-03-07T14:09:51.012Z,40.49
2023-03-07T14:15:16.257Z,41.36
2023-03-07T14:25:56.345Z,41.32
2023-03-07T14:31:05.603Z,41.04
2023-03-07T14:42:43.612Z,42.62
2023-03-07T14:47:54.115Z,43.14
2023-03-07T14:53:12.135Z,43.49
2023-03-07T14:58:23.842Z,43.37
2023-03-07T15:03:26.452Z,42.52
2023-03-07T15:08:35.248Z,42.28
2023-03-07T15:13:51.958Z,42.64
2023-03-07T15:19:29.498Z,42.61
2023-03-07T15:24:59.403Z,42.35
2023-03-07T15:30:03.265Z,42.39
2023-03-07T15:35:08.013Z,42.48
2023-03-07T15:40:09.822Z,43.12
2023-03-07T15:46:01.829Z,43.07
2023-03-07T15:51:11.320Z,43.20
2023-03-07T15:56:40.545Z,43.16
2023-03-07T16:01:42.476Z,42.78
2023-03-07T16:06:45.398Z,43.21
2023-03-07T16:11:47.415Z,43.14
2023-03-07T16:16:49.610Z,43.32
2023-03-07T16:21:51.607Z,43.22
2023-03-07T16:26:53.367Z,42.82
2023-03-07T16:31:55.161Z,42.73
2023-03-07T16:36:56.982Z,42.78
2023-03-07T16:41:58.913Z,42.63
2023-03-07T16:47:08.660Z,43.22
2023-03-07T16:52:13.444Z,42.86
2023-03-07T16:57:16.979Z,42.40
2023-03-07T17:02:21.227Z,42.98
2023-03-07T17:07:23.949Z,42.44
2023-03-07T17:12:25.772Z,42.39
2023-03-07T17:17:33.586Z,42.23
2023-03-07T17:22:35.570Z,42.19
2023-03-07T17:27:41.922Z,42.54
2023-03-07T17:32:44.024Z,42.36
2023-03-07T17:37:46.337Z,42.33
2023-03-07T17:42:52.339Z,43.46
2023-03-07T17:47:55.134Z,43.93
2023-03-07T17:52:56.958Z,44.39
2023-03-07T17:57:59.283Z,45.17
2023-03-07T18:03:01.241Z,45.34
2023-03-07T18:08:05.159Z,45.25
2023-03-07T18:13:09.372Z,45.89
2023-03-07T18:18:11.651Z,46.39
2023-03-07T18:23:13.976Z,46.49
2023-03-07T18:28:16.622Z,46.79
2023-03-07T18:33:18.685Z,47.19
2023-03-07T18:38:22.786Z,47.53
2023-03-07T18:43:24.840Z,47.72
2023-03-07T18:48:26.742Z,47.70
2023-03-07T18:53:28.888Z,48.46
2023-03-07T18:58:31.562Z,48.64
2023-03-07T19:03:34.005Z,48.95
2023-03-07T19:08:36.129Z,49.60
2023-03-07T19:13:38.367Z,49.34
2023-03-07T19:18:40.721Z,49.75
2023-03-07T19:23:42.896Z,49.32
2023-03-07T19:28:49.555Z,49.37
2023-03-07T19:33:52.129Z,49.47
2023-03-07T19:38:55.591Z,48.95
2023-03-07T19:43:59.268Z,48.99
2023-03-07T19:49:01.114Z,49.18
2023-03-07T19:54:04.272Z,49.69
2023-03-07T19:59:08.369Z,49.32
2023-03-07T20:04:16.382Z,49.92
2023-03-07T20:09:18.747Z,49.46
2023-03-07T20:14:20.706Z,49.98
2023-03-07T20:19:22.573Z,50.36
2023-03-07T20:24:24.484Z,50.34
2023-03-07T20:29:26.913Z,50.41
2023-03-07T20:34:28.924Z,50.96
2023-03-07T20:39:30.760Z,50.79
2023-03-07T20:44:32.592Z,50.72
2023-03-07T20:49:34.585Z,50.57
2023-03-07T20:54:36.501Z,50.55
2023-03-07T20:59:38.308Z,50.41
2023-03-07T21:04:40.248Z,50.51
2023-03-07T21:09:42.165Z,51.07
2023-03-07T21:14:44.028Z,51.25
2023-03-07T21:19:46.042Z,51.33
2023-03-07T21:24:47.835Z,51.67
2023-03-07T21:29:49.661Z,51.67
2023-03-07T21:34:51.474Z,51.42
2023-03-07T21:39:53.285Z,51.10
2023-03-07T21:44:55.100Z,50.86
2023-03-07T21:49:56.967Z,50.86
2023-03-07T21:54:58.819Z,51.27
2023-03-07T22:00:00.602Z,51.07
2023-03-07T22:05:02.915Z,51.18
2023-03-07T22:10:07.332Z,51.46
2023-03-07T22:15:09.698Z,51.48
2023-03-07T22:20:12.033Z,51.63
2023-03-07T22:25:13.854Z,51.79
2023-03-07T22:30:16.111Z,51.91
2023-03-07T22:35:18.018Z,51.82
2023-03-07T22:40:19.887Z,52.04
2023-03-07T22:45:21.798Z,52.32
2023-03-07T22:50:23.647Z,51.98
2023-03-07T22:55:25.447Z,52.58
2023-03-07T23:00:27.622Z,52.83
2023-03-07T23:05:31.792Z,52.82
2023-03-07T23:10:34.213Z,52.48
2023-03-07T23:15:39.792Z,52.75
2023-03-07T23:20:41.678Z,52.68
2023-03-07T23:25:43.594Z,54.05
2023-03-07T23:30:45.716Z,53.66
2023-03-07T23:35:47.816Z,53.25
2023-03-07T23:40:49.641Z,53.57
2023-03-07T23:45:51.474Z,53.55
2023-03-07T23:50:53.342Z,54.30
2023-03-07T23:55:55.174Z,54.65
